sensor_id;sensor_type;location;lat;lon;timestamp;P1;durP1;ratioP1;P2;durP2;ratioP2
8526;SDS011;4301;48.362;8.478;2023-02-22T00:00:34;13.00;;;9.50;;
8526;SDS011;4301;48.362;8.478;2023-02-22T00:03:09;13.90;;;9.40;;
8526;SDS011;4301;48.362;8.478;2023-02-22T00:05:37;12.00;;;8.10;;
8526;SDS011;4301;48.362;8.478;2023-02-22T00:08:04;11.10;;;9.03;;
8526;SDS011;4301;48.362;8.478;2023-02-22T00:10:33;10.87;;;9.20;;
8526;SDS011;4301;48.362;8.478;2023-02-22T00:13:03;14.53;;;9.87;;
8526;SDS011;4301;48.362;8.478;2023-02-22T00:15:31;13.27;;;9.23;;
8526;SDS011;4301;48.362;8.478;2023-02-22T00:18:01;13.27;;;9.40;;
8526;SDS011;4301;48.362;8.478;2023-02-22T00:20:29;11.50;;;8.93;;
8526;SDS011;4301;48.362;8.478;2023-02-22T00:22:56;12.20;;;9.50;;
8526;SDS011;4301;48.362;8.478;2023-02-22T00:25:25;11.57;;;8.90;;
8526;SDS011;4301;48.362;8.478;2023-02-22T00:27:52;12.27;;;8.70;;
8526;SDS011;4301;48.362;8.478;2023-02-22T00:30:21;10.30;;;7.90;;
8526;SDS011;4301;48.362;8.478;2023-02-22T00:32:52;10.17;;;8.20;;
8526;SDS011;4301;48.362;8.478;2023-02-22T00:35:20;9.37;;;7.87;;
8526;SDS011;4301;48.362;8.478;2023-02-22T00:37:49;12.07;;;7.77;;
8526;SDS011;4301;48.362;8.478;2023-02-22T00:40:17;9.70;;;8.37;;
8526;SDS011;4301;48.362;8.478;2023-02-22T00:42:45;11.63;;;8.17;;
8526;SDS011;4301;48.362;8.478;2023-02-22T00:45:14;11.13;;;8.53;;
8526;SDS011;4301;48.362;8.478;2023-02-22T00:47:42;10.03;;;8.43;;
8526;SDS011;4301;48.362;8.478;2023-02-22T00:50:10;11.30;;;8.10;;
8526;SDS011;4301;48.362;8.478;2023-02-22T00:52:38;11.97;;;8.33;;
8526;SDS011;4301;48.362;8.478;2023-02-22T00:55:06;10.03;;;8.13;;
8526;SDS011;4301;48.362;8.478;2023-02-22T00:57:34;11.63;;;8.10;;
8526;SDS011;4301;48.362;8.478;2023-02-22T01:00:01;10.17;;;8.00;;
8526;SDS011;4301;48.362;8.478;2023-02-22T01:02:36;9.30;;;7.70;;
8526;SDS011;4301;48.362;8.478;2023-02-22T01:05:03;8.97;;;7.37;;
8526;SDS011;4301;48.362;8.478;2023-02-22T01:07:32;9.10;;;7.60;;
8526;SDS011;4301;48.362;8.478;2023-02-22T01:09:59;9.30;;;7.50;;
8526;SDS011;4301;48.362;8.478;2023-02-22T01:12:26;10.83;;;7.77;;
8526;SDS011;4301;48.362;8.478;2023-02-22T01:14:53;10.10;;;7.03;;
8526;SDS011;4301;48.362;8.478;2023-02-22T01:17:22;11.87;;;8.57;;
8526;SDS011;4301;48.362;8.478;2023-02-22T01:19:49;10.43;;;7.93;;
8526;SDS011;4301;48.362;8.478;2023-02-22T01:22:16;9.10;;;7.50;;
8526;SDS011;4301;48.362;8.478;2023-02-22T01:24:45;10.80;;;7.40;;
8526;SDS011;4301;48.362;8.478;2023-02-22T01:27:12;9.23;;;6.93;;
8526;SDS011;4301;48.362;8.478;2023-02-22T01:29:39;8.57;;;5.77;;
8526;SDS011;4301;48.362;8.478;2023-02-22T01:32:07;8.67;;;7.20;;
8526;SDS011;4301;48.362;8.478;2023-02-22T01:34:36;7.80;;;7.00;;
8526;SDS011;4301;48.362;8.478;2023-02-22T01:37:03;8.63;;;6.77;;
8526;SDS011;4301;48.362;8.478;2023-02-22T01:39:31;7.87;;;6.70;;
8526;SDS011;4301;48.362;8.478;2023-02-22T01:42:00;7.40;;;6.23;;
8526;SDS011;4301;48.362;8.478;2023-02-22T01:44:29;8.60;;;7.10;;
8526;SDS011;4301;48.362;8.478;2023-02-22T01:46:59;9.97;;;7.50;;
8526;SDS011;4301;48.362;8.478;2023-02-22T01:49:29;8.00;;;6.97;;
8526;SDS011;4301;48.362;8.478;2023-02-22T01:52:00;7.70;;;6.90;;
8526;SDS011;4301;48.362;8.478;2023-02-22T01:54:33;7.60;;;6.60;;
8526;SDS011;4301;48.362;8.478;2023-02-22T01:57:05;7.70;;;6.20;;
8526;SDS011;4301;48.362;8.478;2023-02-22T01:59:40;9.47;;;7.07;;
8526;SDS011;4301;48.362;8.478;2023-02-22T02:02:09;10.80;;;6.87;;
8526;SDS011;4301;48.362;8.478;2023-02-22T02:04:37;7.63;;;6.10;;
8526;SDS011;4301;48.362;8.478;2023-02-22T02:07:06;6.87;;;6.10;;
8526;SDS011;4301;48.362;8.478;2023-02-22T02:09:36;7.53;;;6.10;;
8526;SDS011;4301;48.362;8.478;2023-02-22T02:12:09;8.50;;;6.50;;
8526;SDS011;4301;48.362;8.478;2023-02-22T02:14:37;8.87;;;6.17;;
8526;SDS011;4301;48.362;8.478;2023-02-22T02:17:06;8.07;;;6.63;;
8526;SDS011;4301;48.362;8.478;2023-02-22T02:19:37;9.43;;;6.80;;
8526;SDS011;4301;48.362;8.478;2023-02-22T02:22:12;10.73;;;6.70;;
8526;SDS011;4301;48.362;8.478;2023-02-22T02:25:10;7.33;;;6.50;;
8526;SDS011;4301;48.362;8.478;2023-02-22T02:33:59;9.50;;;6.70;;
8526;SDS011;4301;48.362;8.478;2023-02-22T02:36:31;8.60;;;6.50;;
8526;SDS011;4301;48.362;8.478;2023-02-22T02:39:04;8.70;;;6.63;;
8526;SDS011;4301;48.362;8.478;2023-02-22T02:41:35;7.97;;;6.40;;
8526;SDS011;4301;48.362;8.478;2023-02-22T02:44:08;9.20;;;6.43;;
8526;SDS011;4301;48.362;8.478;2023-02-22T02:46:42;8.27;;;6.40;;
8526;SDS011;4301;48.362;8.478;2023-02-22T02:49:15;8.77;;;6.40;;
8526;SDS011;4301;48.362;8.478;2023-02-22T02:51:49;7.30;;;5.90;;
8526;SDS011;4301;48.362;8.478;2023-02-22T02:54:19;9.20;;;7.00;;
8526;SDS011;4301;48.362;8.478;2023-02-22T02:56:48;8.13;;;6.50;;
8526;SDS011;4301;48.362;8.478;2023-02-22T02:59:26;10.63;;;7.77;;
8526;SDS011;4301;48.362;8.478;2023-02-22T03:02:03;10.57;;;7.77;;
8526;SDS011;4301;48.362;8.478;2023-02-22T03:04:45;9.07;;;7.10;;
8526;SDS011;4301;48.362;8.478;2023-02-22T03:07:25;11.83;;;7.83;;
8526;SDS011;4301;48.362;8.478;2023-02-22T03:10:08;9.03;;;7.40;;
8526;SDS011;4301;48.362;8.478;2023-02-22T03:12:46;8.10;;;6.90;;
8526;SDS011;4301;48.362;8.478;2023-02-22T03:15:20;9.33;;;7.30;;
8526;SDS011;4301;48.362;8.478;2023-02-22T03:17:59;9.47;;;7.63;;
8526;SDS011;4301;48.362;8.478;2023-02-22T03:20:33;7.90;;;6.07;;
8526;SDS011;4301;48.362;8.478;2023-02-22T03:23:09;7.33;;;5.60;;
8526;SDS011;4301;48.362;8.478;2023-02-22T03:25:41;9.73;;;7.07;;
8526;SDS011;4301;48.362;8.478;2023-02-22T03:28:14;7.27;;;5.47;;
8526;SDS011;4301;48.362;8.478;2023-02-22T03:30:45;8.47;;;6.63;;
8526;SDS011;4301;48.362;8.478;2023-02-22T03:33:18;9.07;;;5.80;;
8526;SDS011;4301;48.362;8.478;2023-02-22T03:35:55;9.60;;;6.23;;
8526;SDS011;4301;48.362;8.478;2023-02-22T03:38:26;8.93;;;6.80;;
8526;SDS011;4301;48.362;8.478;2023-02-22T03:40:55;9.07;;;7.00;;
8526;SDS011;4301;48.362;8.478;2023-02-22T03:43:26;10.63;;;7.80;;
8526;SDS011;4301;48.362;8.478;2023-02-22T03:45:58;9.50;;;7.30;;
8526;SDS011;4301;48.362;8.478;2023-02-22T03:48:29;9.13;;;7.40;;
8526;SDS011;4301;48.362;8.478;2023-02-22T03:51:02;7.57;;;6.50;;
8526;SDS011;4301;48.362;8.478;2023-02-22T03:53:30;9.07;;;6.40;;
8526;SDS011;4301;48.362;8.478;2023-02-22T03:56:01;8.07;;;7.10;;
8526;SDS011;4301;48.362;8.478;2023-02-22T03:58:31;10.20;;;7.13;;
8526;SDS011;4301;48.362;8.478;2023-02-22T04:01:01;7.97;;;6.40;;
8526;SDS011;4301;48.362;8.478;2023-02-22T04:03:29;9.70;;;6.60;;
8526;SDS011;4301;48.362;8.478;2023-02-22T04:05:55;7.93;;;6.57;;
8526;SDS011;4301;48.362;8.478;2023-02-22T04:08:24;7.70;;;6.60;;
8526;SDS011;4301;48.362;8.478;2023-02-22T04:10:51;8.90;;;6.63;;
8526;SDS011;4301;48.362;8.478;2023-02-22T04:13:18;8.40;;;6.47;;
8526;SDS011;4301;48.362;8.478;2023-02-22T04:15:45;9.83;;;6.30;;
8526;SDS011;4301;48.362;8.478;2023-02-22T04:18:12;7.53;;;6.50;;
8526;SDS011;4301;48.362;8.478;2023-02-22T04:20:39;7.17;;;6.20;;
8526;SDS011;4301;48.362;8.478;2023-02-22T04:23:06;6.93;;;6.23;;
8526;SDS011;4301;48.362;8.478;2023-02-22T04:25:34;7.70;;;6.47;;
8526;SDS011;4301;48.362;8.478;2023-02-22T04:28:01;8.33;;;6.00;;
8526;SDS011;4301;48.362;8.478;2023-02-22T04:30:29;7.83;;;5.87;;
8526;SDS011;4301;48.362;8.478;2023-02-22T04:32:55;7.87;;;5.83;;
8526;SDS011;4301;48.362;8.478;2023-02-22T04:35:23;8.37;;;6.37;;
8526;SDS011;4301;48.362;8.478;2023-02-22T04:37:49;7.67;;;6.30;;
8526;SDS011;4301;48.362;8.478;2023-02-22T04:40:16;7.23;;;6.13;;
8526;SDS011;4301;48.362;8.478;2023-02-22T04:42:45;8.80;;;6.37;;
8526;SDS011;4301;48.362;8.478;2023-02-22T04:45:12;8.10;;;6.27;;
8526;SDS011;4301;48.362;8.478;2023-02-22T04:47:39;7.53;;;6.50;;
8526;SDS011;4301;48.362;8.478;2023-02-22T04:50:06;9.63;;;6.13;;
8526;SDS011;4301;48.362;8.478;2023-02-22T04:52:35;7.50;;;6.37;;
8526;SDS011;4301;48.362;8.478;2023-02-22T04:55:02;7.37;;;5.80;;
8526;SDS011;4301;48.362;8.478;2023-02-22T04:57:29;7.70;;;6.27;;
8526;SDS011;4301;48.362;8.478;2023-02-22T04:59:58;7.93;;;6.13;;
8526;SDS011;4301;48.362;8.478;2023-02-22T05:02:25;9.00;;;7.00;;
8526;SDS011;4301;48.362;8.478;2023-02-22T05:04:52;16.00;;;7.40;;
8526;SDS011;4301;48.362;8.478;2023-02-22T05:07:19;12.00;;;7.40;;
8526;SDS011;4301;48.362;8.478;2023-02-22T05:09:45;9.50;;;7.53;;
8526;SDS011;4301;48.362;8.478;2023-02-22T05:12:12;9.57;;;7.50;;
8526;SDS011;4301;48.362;8.478;2023-02-22T05:14:39;8.57;;;7.50;;
8526;SDS011;4301;48.362;8.478;2023-02-22T05:17:09;10.33;;;7.80;;
8526;SDS011;4301;48.362;8.478;2023-02-22T05:19:36;10.47;;;7.83;;
8526;SDS011;4301;48.362;8.478;2023-02-22T05:22:03;9.77;;;7.60;;
8526;SDS011;4301;48.362;8.478;2023-02-22T05:24:30;10.23;;;8.00;;
8526;SDS011;4301;48.362;8.478;2023-02-22T05:26:59;8.40;;;7.20;;
8526;SDS011;4301;48.362;8.478;2023-02-22T05:29:26;9.30;;;7.67;;
8526;SDS011;4301;48.362;8.478;2023-02-22T05:31:52;11.00;;;8.10;;
8526;SDS011;4301;48.362;8.478;2023-02-22T05:34:21;12.47;;;8.67;;
8526;SDS011;4301;48.362;8.478;2023-02-22T05:36:48;12.17;;;8.80;;
8526;SDS011;4301;48.362;8.478;2023-02-22T05:39:15;11.63;;;8.30;;
8526;SDS011;4301;48.362;8.478;2023-02-22T05:41:42;8.17;;;7.17;;
8526;SDS011;4301;48.362;8.478;2023-02-22T05:44:08;10.63;;;7.80;;
8526;SDS011;4301;48.362;8.478;2023-02-22T05:46:35;10.70;;;8.07;;
8526;SDS011;4301;48.362;8.478;2023-02-22T05:49:02;11.13;;;7.90;;
8526;SDS011;4301;48.362;8.478;2023-02-22T05:51:31;10.67;;;8.03;;
8526;SDS011;4301;48.362;8.478;2023-02-22T05:53:58;10.87;;;7.70;;
8526;SDS011;4301;48.362;8.478;2023-02-22T05:56:25;8.93;;;7.10;;
8526;SDS011;4301;48.362;8.478;2023-02-22T05:58:54;9.10;;;7.37;;
8526;SDS011;4301;48.362;8.478;2023-02-22T06:01:21;9.30;;;7.43;;
8526;SDS011;4301;48.362;8.478;2023-02-22T06:03:48;9.63;;;7.37;;
8526;SDS011;4301;48.362;8.478;2023-02-22T06:06:16;9.57;;;7.90;;
8526;SDS011;4301;48.362;8.478;2023-02-22T06:08:45;13.10;;;7.23;;
8526;SDS011;4301;48.362;8.478;2023-02-22T06:11:12;9.00;;;7.20;;
8526;SDS011;4301;48.362;8.478;2023-02-22T06:13:39;8.33;;;7.17;;
8526;SDS011;4301;48.362;8.478;2023-02-22T06:16:06;9.07;;;7.40;;
8526;SDS011;4301;48.362;8.478;2023-02-22T06:18:33;9.00;;;7.20;;
8526;SDS011;4301;48.362;8.478;2023-02-22T06:21:00;11.20;;;7.43;;
8526;SDS011;4301;48.362;8.478;2023-02-22T06:23:27;8.80;;;6.87;;
8526;SDS011;4301;48.362;8.478;2023-02-22T06:25:55;13.00;;;7.60;;
8526;SDS011;4301;48.362;8.478;2023-02-22T06:28:22;9.60;;;7.37;;
8526;SDS011;4301;48.362;8.478;2023-02-22T06:30:50;11.35;;;7.65;;
8526;SDS011;4301;48.362;8.478;2023-02-22T06:33:17;9.90;;;7.33;;
8526;SDS011;4301;48.362;8.478;2023-02-22T06:35:44;8.60;;;7.00;;
8526;SDS011;4301;48.362;8.478;2023-02-22T06:38:11;12.70;;;8.73;;
8526;SDS011;4301;48.362;8.478;2023-02-22T06:40:46;14.67;;;9.63;;
8526;SDS011;4301;48.362;8.478;2023-02-22T06:43:14;12.07;;;8.50;;
8526;SDS011;4301;48.362;8.478;2023-02-22T06:45:42;11.40;;;8.70;;
8526;SDS011;4301;48.362;8.478;2023-02-22T06:48:08;9.37;;;7.07;;
8526;SDS011;4301;48.362;8.478;2023-02-22T06:50:35;10.43;;;7.80;;
8526;SDS011;4301;48.362;8.478;2023-02-22T06:53:02;10.43;;;8.17;;
8526;SDS011;4301;48.362;8.478;2023-02-22T06:55:30;11.57;;;7.33;;
8526;SDS011;4301;48.362;8.478;2023-02-22T06:57:58;9.20;;;6.43;;
8526;SDS011;4301;48.362;8.478;2023-02-22T07:00:28;11.50;;;6.53;;
8526;SDS011;4301;48.362;8.478;2023-02-22T07:02:56;8.10;;;6.07;;
8526;SDS011;4301;48.362;8.478;2023-02-22T07:05:24;6.37;;;5.13;;
8526;SDS011;4301;48.362;8.478;2023-02-22T07:07:53;7.97;;;6.07;;
8526;SDS011;4301;48.362;8.478;2023-02-22T07:10:22;5.90;;;5.30;;
8526;SDS011;4301;48.362;8.478;2023-02-22T07:12:50;7.33;;;5.30;;
8526;SDS011;4301;48.362;8.478;2023-02-22T07:15:17;7.63;;;5.70;;
8526;SDS011;4301;48.362;8.478;2023-02-22T07:17:47;7.43;;;5.30;;
8526;SDS011;4301;48.362;8.478;2023-02-22T07:20:15;9.13;;;5.23;;
8526;SDS011;4301;48.362;8.478;2023-02-22T07:22:42;6.17;;;5.13;;
8526;SDS011;4301;48.362;8.478;2023-02-22T07:25:09;6.47;;;5.27;;
8526;SDS011;4301;48.362;8.478;2023-02-22T07:27:37;8.17;;;5.17;;
8526;SDS011;4301;48.362;8.478;2023-02-22T07:30:06;6.40;;;5.33;;
8526;SDS011;4301;48.362;8.478;2023-02-22T07:32:34;7.13;;;5.10;;
8526;SDS011;4301;48.362;8.478;2023-02-22T07:35:02;5.23;;;4.30;;
8526;SDS011;4301;48.362;8.478;2023-02-22T07:37:29;6.00;;;4.53;;
8526;SDS011;4301;48.362;8.478;2023-02-22T07:39:56;7.80;;;4.53;;
8526;SDS011;4301;48.362;8.478;2023-02-22T07:42:23;5.00;;;4.50;;
8526;SDS011;4301;48.362;8.478;2023-02-22T07:44:50;5.23;;;4.67;;
8526;SDS011;4301;48.362;8.478;2023-02-22T07:47:17;6.60;;;4.67;;
8526;SDS011;4301;48.362;8.478;2023-02-22T07:49:44;6.20;;;4.60;;
8526;SDS011;4301;48.362;8.478;2023-02-22T07:52:12;5.67;;;4.40;;
8526;SDS011;4301;48.362;8.478;2023-02-22T07:54:39;8.47;;;4.77;;
8526;SDS011;4301;48.362;8.478;2023-02-22T07:57:06;5.27;;;4.77;;
8526;SDS011;4301;48.362;8.478;2023-02-22T07:59:33;9.00;;;4.80;;
8526;SDS011;4301;48.362;8.478;2023-02-22T08:02:00;5.37;;;4.10;;
8526;SDS011;4301;48.362;8.478;2023-02-22T08:04:27;4.73;;;4.10;;
8526;SDS011;4301;48.362;8.478;2023-02-22T08:06:54;6.73;;;4.90;;
8526;SDS011;4301;48.362;8.478;2023-02-22T08:09:22;4.43;;;4.00;;
8526;SDS011;4301;48.362;8.478;2023-02-22T08:11:49;6.43;;;5.07;;
8526;SDS011;4301;48.362;8.478;2023-02-22T08:14:16;4.87;;;4.10;;
8526;SDS011;4301;48.362;8.478;2023-02-22T08:16:43;5.10;;;4.60;;
8526;SDS011;4301;48.362;8.478;2023-02-22T08:19:10;6.60;;;5.37;;
8526;SDS011;4301;48.362;8.478;2023-02-22T08:21:37;10.57;;;6.77;;
8526;SDS011;4301;48.362;8.478;2023-02-22T08:24:04;8.13;;;6.73;;
8526;SDS011;4301;48.362;8.478;2023-02-22T08:26:32;11.10;;;8.23;;
8526;SDS011;4301;48.362;8.478;2023-02-22T08:28:59;13.60;;;9.40;;
8526;SDS011;4301;48.362;8.478;2023-02-22T08:31:26;13.67;;;9.63;;
8526;SDS011;4301;48.362;8.478;2023-02-22T08:33:53;11.63;;;9.33;;
8526;SDS011;4301;48.362;8.478;2023-02-22T08:36:21;12.17;;;9.93;;
8526;SDS011;4301;48.362;8.478;2023-02-22T08:38:48;17.17;;;14.60;;
8526;SDS011;4301;48.362;8.478;2023-02-22T08:41:14;11.60;;;9.30;;
8526;SDS011;4301;48.362;8.478;2023-02-22T08:43:43;17.23;;;14.93;;
8526;SDS011;4301;48.362;8.478;2023-02-22T08:46:10;15.30;;;11.97;;
8526;SDS011;4301;48.362;8.478;2023-02-22T08:48:37;14.63;;;12.90;;
8526;SDS011;4301;48.362;8.478;2023-02-22T08:51:04;10.23;;;8.90;;
8526;SDS011;4301;48.362;8.478;2023-02-22T08:53:31;9.90;;;7.63;;
8526;SDS011;4301;48.362;8.478;2023-02-22T08:55:58;7.60;;;6.23;;
8526;SDS011;4301;48.362;8.478;2023-02-22T08:58:25;6.43;;;5.37;;
8526;SDS011;4301;48.362;8.478;2023-02-22T09:00:53;9.17;;;6.97;;
8526;SDS011;4301;48.362;8.478;2023-02-22T09:03:20;8.03;;;7.23;;
8526;SDS011;4301;48.362;8.478;2023-02-22T09:05:47;8.03;;;7.23;;
8526;SDS011;4301;48.362;8.478;2023-02-22T09:08:14;9.50;;;6.45;;
8526;SDS011;4301;48.362;8.478;2023-02-22T09:10:42;6.70;;;6.00;;
8526;SDS011;4301;48.362;8.478;2023-02-22T09:13:09;14.93;;;12.67;;
8526;SDS011;4301;48.362;8.478;2023-02-22T09:15:37;11.13;;;6.60;;
8526;SDS011;4301;48.362;8.478;2023-02-22T09:18:06;10.40;;;5.53;;
8526;SDS011;4301;48.362;8.478;2023-02-22T09:20:35;5.43;;;4.93;;
8526;SDS011;4301;48.362;8.478;2023-02-22T09:23:02;7.00;;;6.22;;
8526;SDS011;4301;48.362;8.478;2023-02-22T09:25:30;6.25;;;5.70;;
8526;SDS011;4301;48.362;8.478;2023-02-22T09:27:58;7.43;;;6.73;;
8526;SDS011;4301;48.362;8.478;2023-02-22T09:30:26;7.17;;;6.33;;
8526;SDS011;4301;48.362;8.478;2023-02-22T09:32:57;6.00;;;5.03;;
8526;SDS011;4301;48.362;8.478;2023-02-22T09:35:26;5.43;;;3.87;;
8526;SDS011;4301;48.362;8.478;2023-02-22T09:37:54;3.37;;;3.07;;
8526;SDS011;4301;48.362;8.478;2023-02-22T09:40:21;5.97;;;3.30;;
8526;SDS011;4301;48.362;8.478;2023-02-22T09:42:56;3.27;;;2.97;;
8526;SDS011;4301;48.362;8.478;2023-02-22T09:45:31;3.37;;;3.03;;
8526;SDS011;4301;48.362;8.478;2023-02-22T09:48:05;2.97;;;2.73;;
8526;SDS011;4301;48.362;8.478;2023-02-22T09:50:35;5.03;;;3.50;;
8526;SDS011;4301;48.362;8.478;2023-02-22T09:53:06;3.40;;;3.10;;
8526;SDS011;4301;48.362;8.478;2023-02-22T09:55:47;3.87;;;3.53;;
8526;SDS011;4301;48.362;8.478;2023-02-22T09:58:18;4.07;;;3.23;;
8526;SDS011;4301;48.362;8.478;2023-02-22T10:00:49;5.03;;;4.17;;
8526;SDS011;4301;48.362;8.478;2023-02-22T10:03:24;5.70;;;5.10;;
8526;SDS011;4301;48.362;8.478;2023-02-22T10:06:01;6.43;;;4.43;;
8526;SDS011;4301;48.362;8.478;2023-02-22T10:08:32;9.05;;;5.47;;
8526;SDS011;4301;48.362;8.478;2023-02-22T10:11:03;8.33;;;6.33;;
8526;SDS011;4301;48.362;8.478;2023-02-22T10:13:42;8.75;;;5.90;;
8526;SDS011;4301;48.362;8.478;2023-02-22T10:16:18;12.52;;;6.78;;
8526;SDS011;4301;48.362;8.478;2023-02-22T10:19:00;7.07;;;6.35;;
8526;SDS011;4301;48.362;8.478;2023-02-22T10:21:47;9.33;;;6.47;;
8526;SDS011;4301;48.362;8.478;2023-02-22T10:24:31;10.03;;;6.33;;
8526;SDS011;4301;48.362;8.478;2023-02-22T10:27:05;8.50;;;6.70;;
8526;SDS011;4301;48.362;8.478;2023-02-22T10:29:39;8.27;;;6.93;;
8526;SDS011;4301;48.362;8.478;2023-02-22T10:32:10;9.97;;;7.27;;
8526;SDS011;4301;48.362;8.478;2023-02-22T10:34:43;7.40;;;6.50;;
8526;SDS011;4301;48.362;8.478;2023-02-22T10:37:21;9.75;;;7.45;;
8526;SDS011;4301;48.362;8.478;2023-02-22T10:39:51;8.77;;;7.20;;
8526;SDS011;4301;48.362;8.478;2023-02-22T10:42:23;9.93;;;7.70;;
8526;SDS011;4301;48.362;8.478;2023-02-22T10:44:52;9.37;;;7.23;;
8526;SDS011;4301;48.362;8.478;2023-02-22T10:47:20;10.73;;;7.03;;
8526;SDS011;4301;48.362;8.478;2023-02-22T10:49:49;10.85;;;7.03;;
8526;SDS011;4301;48.362;8.478;2023-02-22T10:52:23;10.20;;;6.63;;
8526;SDS011;4301;48.362;8.478;2023-02-22T10:54:53;10.52;;;7.00;;
8526;SDS011;4301;48.362;8.478;2023-02-22T10:57:23;8.93;;;6.43;;
8526;SDS011;4301;48.362;8.478;2023-02-22T10:59:52;9.02;;;6.10;;
8526;SDS011;4301;48.362;8.478;2023-02-22T11:02:23;9.57;;;6.47;;
8526;SDS011;4301;48.362;8.478;2023-02-22T11:04:55;10.85;;;6.63;;
8526;SDS011;4301;48.362;8.478;2023-02-22T11:07:27;11.13;;;6.38;;
8526;SDS011;4301;48.362;8.478;2023-02-22T11:09:56;8.93;;;6.45;;
8526;SDS011;4301;48.362;8.478;2023-02-22T11:12:26;8.93;;;6.00;;
8526;SDS011;4301;48.362;8.478;2023-02-22T11:14:56;8.65;;;5.82;;
8526;SDS011;4301;48.362;8.478;2023-02-22T11:17:26;7.60;;;5.80;;
8526;SDS011;4301;48.362;8.478;2023-02-22T11:19:56;8.27;;;6.85;;
8526;SDS011;4301;48.362;8.478;2023-02-22T11:22:26;7.38;;;6.18;;
8526;SDS011;4301;48.362;8.478;2023-02-22T11:24:56;8.48;;;6.68;;
8526;SDS011;4301;48.362;8.478;2023-02-22T11:27:32;8.23;;;7.28;;
8526;SDS011;4301;48.362;8.478;2023-02-22T11:32:53;8.40;;;6.88;;
8526;SDS011;4301;48.362;8.478;2023-02-22T11:35:34;7.45;;;6.75;;
8526;SDS011;4301;48.362;8.478;2023-02-22T11:43:39;8.15;;;6.80;;
8526;SDS011;4301;48.362;8.478;2023-02-22T11:46:08;10.50;;;7.57;;
8526;SDS011;4301;48.362;8.478;2023-02-22T11:48:40;8.27;;;7.43;;
8526;SDS011;4301;48.362;8.478;2023-02-22T11:51:16;7.97;;;7.18;;
8526;SDS011;4301;48.362;8.478;2023-02-22T11:53:58;9.60;;;7.78;;
8526;SDS011;4301;48.362;8.478;2023-02-22T11:56:38;7.93;;;7.22;;
8526;SDS011;4301;48.362;8.478;2023-02-22T11:59:11;9.00;;;7.47;;
8526;SDS011;4301;48.362;8.478;2023-02-22T12:01:49;10.40;;;7.07;;
8526;SDS011;4301;48.362;8.478;2023-02-22T12:04:27;9.13;;;7.43;;
8526;SDS011;4301;48.362;8.478;2023-02-22T12:07:27;7.70;;;6.90;;
8526;SDS011;4301;48.362;8.478;2023-02-22T12:10:07;7.70;;;6.90;;
8526;SDS011;4301;48.362;8.478;2023-02-22T12:12:46;8.40;;;6.97;;
8526;SDS011;4301;48.362;8.478;2023-02-22T12:15:27;8.50;;;7.63;;
8526;SDS011;4301;48.362;8.478;2023-02-22T12:17:59;8.25;;;7.45;;
8526;SDS011;4301;48.362;8.478;2023-02-22T12:20:33;8.57;;;7.25;;
8526;SDS011;4301;48.362;8.478;2023-02-22T12:23:06;7.75;;;7.00;;
8526;SDS011;4301;48.362;8.478;2023-02-22T12:25:48;8.60;;;7.50;;
8526;SDS011;4301;48.362;8.478;2023-02-22T12:28:24;7.72;;;6.95;;
8526;SDS011;4301;48.362;8.478;2023-02-22T12:31:02;8.65;;;7.07;;
8526;SDS011;4301;48.362;8.478;2023-02-22T12:33:39;8.45;;;7.20;;
8526;SDS011;4301;48.362;8.478;2023-02-22T12:36:15;9.23;;;6.65;;
8526;SDS011;4301;48.362;8.478;2023-02-22T12:38:47;7.63;;;6.93;;
8526;SDS011;4301;48.362;8.478;2023-02-22T12:41:21;7.78;;;7.05;;
8526;SDS011;4301;48.362;8.478;2023-02-22T12:43:53;8.57;;;7.10;;
8526;SDS011;4301;48.362;8.478;2023-02-22T12:46:26;7.20;;;6.55;;
8526;SDS011;4301;48.362;8.478;2023-02-22T12:48:59;7.63;;;6.93;;
8526;SDS011;4301;48.362;8.478;2023-02-22T12:51:35;9.23;;;7.25;;
8526;SDS011;4301;48.362;8.478;2023-02-22T12:54:09;11.75;;;7.25;;
8526;SDS011;4301;48.362;8.478;2023-02-22T12:56:44;12.05;;;7.25;;
8526;SDS011;4301;48.362;8.478;2023-02-22T12:59:16;10.25;;;7.63;;
8526;SDS011;4301;48.362;8.478;2023-02-22T13:01:49;8.75;;;7.85;;
8526;SDS011;4301;48.362;8.478;2023-02-22T13:04:20;9.73;;;7.03;;
8526;SDS011;4301;48.362;8.478;2023-02-22T13:06:49;8.70;;;7.35;;
8526;SDS011;4301;48.362;8.478;2023-02-22T13:09:39;9.30;;;7.43;;
8526;SDS011;4301;48.362;8.478;2023-02-22T13:12:18;8.00;;;7.20;;
8526;SDS011;4301;48.362;8.478;2023-02-22T13:14:52;9.70;;;7.43;;
8526;SDS011;4301;48.362;8.478;2023-02-22T13:17:27;9.20;;;7.67;;
8526;SDS011;4301;48.362;8.478;2023-02-22T13:20:05;10.57;;;7.63;;
8526;SDS011;4301;48.362;8.478;2023-02-22T13:22:40;8.37;;;7.23;;
8526;SDS011;4301;48.362;8.478;2023-02-22T13:25:13;9.17;;;7.60;;
8526;SDS011;4301;48.362;8.478;2023-02-22T13:27:45;8.13;;;6.77;;
8526;SDS011;4301;48.362;8.478;2023-02-22T13:30:18;9.63;;;7.03;;
8526;SDS011;4301;48.362;8.478;2023-02-22T13:33:00;8.73;;;6.77;;
8526;SDS011;4301;48.362;8.478;2023-02-22T13:38:45;8.30;;;7.50;;
8526;SDS011;4301;48.362;8.478;2023-02-22T13:41:41;11.40;;;7.90;;
8526;SDS011;4301;48.362;8.478;2023-02-22T13:44:28;8.43;;;7.63;;
8526;SDS011;4301;48.362;8.478;2023-02-22T13:47:26;8.57;;;7.67;;
8526;SDS011;4301;48.362;8.478;2023-02-22T13:53:21;12.23;;;9.13;;
8526;SDS011;4301;48.362;8.478;2023-02-22T13:55:52;10.10;;;9.10;;
8526;SDS011;4301;48.362;8.478;2023-02-22T13:58:21;9.87;;;8.70;;
8526;SDS011;4301;48.362;8.478;2023-02-22T14:00:50;10.80;;;9.20;;
8526;SDS011;4301;48.362;8.478;2023-02-22T14:03:33;11.43;;;9.60;;
8526;SDS011;4301;48.362;8.478;2023-02-22T14:06:04;11.43;;;9.73;;
8526;SDS011;4301;48.362;8.478;2023-02-22T14:08:40;10.70;;;9.60;;
8526;SDS011;4301;48.362;8.478;2023-02-22T14:14:21;12.90;;;10.37;;
8526;SDS011;4301;48.362;8.478;2023-02-22T14:20:17;16.83;;;10.83;;
8526;SDS011;4301;48.362;8.478;2023-02-22T14:22:54;12.80;;;9.80;;
8526;SDS011;4301;48.362;8.478;2023-02-22T14:25:31;11.27;;;10.03;;
8526;SDS011;4301;48.362;8.478;2023-02-22T14:28:02;14.63;;;10.87;;
8526;SDS011;4301;48.362;8.478;2023-02-22T14:30:31;14.83;;;11.87;;
8526;SDS011;4301;48.362;8.478;2023-02-22T14:33:01;15.77;;;12.53;;
8526;SDS011;4301;48.362;8.478;2023-02-22T14:35:30;12.73;;;10.50;;
8526;SDS011;4301;48.362;8.478;2023-02-22T14:38:03;13.40;;;11.60;;
8526;SDS011;4301;48.362;8.478;2023-02-22T14:40:39;15.17;;;10.77;;
8526;SDS011;4301;48.362;8.478;2023-02-22T14:43:10;13.13;;;11.23;;
8526;SDS011;4301;48.362;8.478;2023-02-22T14:45:42;11.57;;;10.37;;
8526;SDS011;4301;48.362;8.478;2023-02-22T14:48:17;15.20;;;11.07;;
8526;SDS011;4301;48.362;8.478;2023-02-22T14:50:52;12.00;;;10.73;;
8526;SDS011;4301;48.362;8.478;2023-02-22T14:53:22;12.17;;;10.43;;
8526;SDS011;4301;48.362;8.478;2023-02-22T14:55:55;15.40;;;11.70;;
8526;SDS011;4301;48.362;8.478;2023-02-22T14:58:28;16.90;;;11.27;;
8526;SDS011;4301;48.362;8.478;2023-02-22T15:00:59;13.97;;;10.87;;
8526;SDS011;4301;48.362;8.478;2023-02-22T15:03:48;13.60;;;11.43;;
8526;SDS011;4301;48.362;8.478;2023-02-22T15:06:16;14.30;;;11.00;;
8526;SDS011;4301;48.362;8.478;2023-02-22T15:08:46;13.80;;;11.47;;
8526;SDS011;4301;48.362;8.478;2023-02-22T15:11:21;13.40;;;11.13;;
8526;SDS011;4301;48.362;8.478;2023-02-22T15:13:49;14.77;;;10.97;;
8526;SDS011;4301;48.362;8.478;2023-02-22T15:16:17;15.07;;;11.47;;
8526;SDS011;4301;48.362;8.478;2023-02-22T15:18:45;13.03;;;11.53;;
8526;SDS011;4301;48.362;8.478;2023-02-22T15:21:18;13.60;;;12.00;;
8526;SDS011;4301;48.362;8.478;2023-02-22T15:23:47;15.07;;;11.53;;
8526;SDS011;4301;48.362;8.478;2023-02-22T15:26:17;13.97;;;10.93;;
8526;SDS011;4301;48.362;8.478;2023-02-22T15:28:51;14.53;;;11.63;;
8526;SDS011;4301;48.362;8.478;2023-02-22T15:31:23;14.07;;;11.43;;
8526;SDS011;4301;48.362;8.478;2023-02-22T15:33:54;14.57;;;11.73;;
8526;SDS011;4301;48.362;8.478;2023-02-22T15:36:23;13.37;;;11.60;;
8526;SDS011;4301;48.362;8.478;2023-02-22T15:38:53;15.50;;;11.30;;
8526;SDS011;4301;48.362;8.478;2023-02-22T15:41:27;13.83;;;11.10;;
8526;SDS011;4301;48.362;8.478;2023-02-22T15:43:59;14.93;;;12.07;;
8526;SDS011;4301;48.362;8.478;2023-02-22T15:46:29;13.60;;;11.53;;
8526;SDS011;4301;48.362;8.478;2023-02-22T15:49:05;15.13;;;11.80;;
8526;SDS011;4301;48.362;8.478;2023-02-22T15:51:33;21.07;;;12.27;;
8526;SDS011;4301;48.362;8.478;2023-02-22T15:54:02;14.93;;;12.20;;
8526;SDS011;4301;48.362;8.478;2023-02-22T15:56:33;13.80;;;11.93;;